sensor_id;sensor_type;location;lat;lon;timestamp;temperature;humidity
37158;DHT22;23050;51.776;22.638;2022-08-21T00:02:02;18.00;99.90
37158;DHT22;23050;51.776;22.638;2022-08-21T00:04:28;17.90;99.90
37158;DHT22;23050;51.776;22.638;2022-08-21T00:06:54;17.90;99.90
37158;DHT22;23050;51.776;22.638;2022-08-21T00:09:20;17.90;99.90
37158;DHT22;23050;51.776;22.638;2022-08-21T00:11:46;17.80;99.90
37158;DHT22;23050;51.776;22.638;2022-08-21T00:14:14;17.80;99.90
37158;DHT22;23050;51.776;22.638;2022-08-21T00:16:40;17.80;99.90
37158;DHT22;23050;51.776;22.638;2022-08-21T00:19:07;17.70;99.90
37158;DHT22;23050;51.776;22.638;2022-08-21T00:21:33;17.80;99.90
37158;DHT22;23050;51.776;22.638;2022-08-21T00:24:00;17.70;99.90
37158;DHT22;23050;51.776;22.638;2022-08-21T00:26:26;17.70;99.90
37158;DHT22;23050;51.776;22.638;2022-08-21T00:28:52;17.70;99.90
37158;DHT22;23050;51.776;22.638;2022-08-21T00:31:18;17.70;99.90
37158;DHT22;23050;51.776;22.638;2022-08-21T00:33:44;17.60;99.90
37158;DHT22;23050;51.776;22.638;2022-08-21T00:36:10;17.60;99.90
37158;DHT22;23050;51.776;22.638;2022-08-21T00:38:36;17.60;99.90
37158;DHT22;23050;51.776;22.638;2022-08-21T00:41:04;17.50;99.90
37158;DHT22;23050;51.776;22.638;2022-08-21T00:43:33;17.50;99.90
37158;DHT22;23050;51.776;22.638;2022-08-21T00:46:00;17.50;99.90
37158;DHT22;23050;51.776;22.638;2022-08-21T00:48:26;17.40;99.90
37158;DHT22;23050;51.776;22.638;2022-08-21T00:51:00;17.40;99.90
37158;DHT22;23050;51.776;22.638;2022-08-21T00:53:28;17.40;99.90
37158;DHT22;23050;51.776;22.638;2022-08-21T00:55:55;17.40;99.90
37158;DHT22;23050;51.776;22.638;2022-08-21T00:58:20;17.30;99.90
37158;DHT22;23050;51.776;22.638;2022-08-21T01:00:48;17.30;99.90
37158;DHT22;23050;51.776;22.638;2022-08-21T01:03:17;17.30;99.90
37158;DHT22;23050;51.776;22.638;2022-08-21T01:05:44;17.20;99.90
37158;DHT22;23050;51.776;22.638;2022-08-21T01:08:12;17.20;99.90
37158;DHT22;23050;51.776;22.638;2022-08-21T01:10:38;17.20;99.90
37158;DHT22;23050;51.776;22.638;2022-08-21T01:13:06;17.20;99.90
37158;DHT22;23050;51.776;22.638;2022-08-21T01:15:38;17.10;99.90
37158;DHT22;23050;51.776;22.638;2022-08-21T01:18:06;17.10;99.90
37158;DHT22;23050;51.776;22.638;2022-08-21T01:20:33;17.10;99.90
37158;DHT22;23050;51.776;22.638;2022-08-21T01:23:00;17.20;99.90
37158;DHT22;23050;51.776;22.638;2022-08-21T01:25:26;17.10;99.90
37158;DHT22;23050;51.776;22.638;2022-08-21T01:27:51;17.10;99.90
37158;DHT22;23050;51.776;22.638;2022-08-21T01:30:24;17.00;99.90
37158;DHT22;23050;51.776;22.638;2022-08-21T01:32:50;17.00;99.90
37158;DHT22;23050;51.776;22.638;2022-08-21T01:35:18;17.00;99.90
37158;DHT22;23050;51.776;22.638;2022-08-21T01:37:45;17.00;99.90
37158;DHT22;23050;51.776;22.638;2022-08-21T01:40:12;17.00;99.90
37158;DHT22;23050;51.776;22.638;2022-08-21T01:42:38;17.00;99.90
37158;DHT22;23050;51.776;22.638;2022-08-21T01:45:06;17.00;99.90
37158;DHT22;23050;51.776;22.638;2022-08-21T01:47:32;17.00;99.90
37158;DHT22;23050;51.776;22.638;2022-08-21T01:49:58;16.90;99.90
37158;DHT22;23050;51.776;22.638;2022-08-21T01:52:24;16.90;99.90
37158;DHT22;23050;51.776;22.638;2022-08-21T01:54:50;16.90;99.90
37158;DHT22;23050;51.776;22.638;2022-08-21T01:57:16;16.90;99.90
37158;DHT22;23050;51.776;22.638;2022-08-21T01:59:43;16.90;99.90
37158;DHT22;23050;51.776;22.638;2022-08-21T02:02:08;16.90;99.90
37158;DHT22;23050;51.776;22.638;2022-08-21T02:04:34;16.80;99.90
37158;DHT22;23050;51.776;22.638;2022-08-21T02:07:01;16.80;99.90
37158;DHT22;23050;51.776;22.638;2022-08-21T02:09:27;16.80;99.90
37158;DHT22;23050;51.776;22.638;2022-08-21T02:11:53;16.80;99.90
37158;DHT22;23050;51.776;22.638;2022-08-21T02:14:20;16.70;99.90
37158;DHT22;23050;51.776;22.638;2022-08-21T02:16:45;16.70;99.90
37158;DHT22;23050;51.776;22.638;2022-08-21T02:19:14;16.70;99.90
37158;DHT22;23050;51.776;22.638;2022-08-21T02:21:40;16.70;99.90
37158;DHT22;23050;51.776;22.638;2022-08-21T02:24:07;16.70;99.90
37158;DHT22;23050;51.776;22.638;2022-08-21T02:26:33;16.70;99.90
37158;DHT22;23050;51.776;22.638;2022-08-21T02:28:59;16.60;99.90
37158;DHT22;23050;51.776;22.638;2022-08-21T02:31:25;16.60;99.90
37158;DHT22;23050;51.776;22.638;2022-08-21T02:33:51;16.60;99.90
37158;DHT22;23050;51.776;22.638;2022-08-21T02:36:17;16.60;99.90
37158;DHT22;23050;51.776;22.638;2022-08-21T02:38:44;16.50;99.90
37158;DHT22;23050;51.776;22.638;2022-08-21T02:41:13;16.50;99.90
37158;DHT22;23050;51.776;22.638;2022-08-21T02:43:39;16.50;99.90
37158;DHT22;23050;51.776;22.638;2022-08-21T02:46:06;16.50;99.90
37158;DHT22;23050;51.776;22.638;2022-08-21T02:48:33;16.50;99.90
37158;DHT22;23050;51.776;22.638;2022-08-21T02:51:13;16.50;99.90
37158;DHT22;23050;51.776;22.638;2022-08-21T02:53:41;16.40;99.90
37158;DHT22;23050;51.776;22.638;2022-08-21T02:56:08;16.40;99.90
37158;DHT22;23050;51.776;22.638;2022-08-21T02:58:37;16.40;99.90
37158;DHT22;23050;51.776;22.638;2022-08-21T03:01:04;16.40;99.90
37158;DHT22;23050;51.776;22.638;2022-08-21T03:03:30;16.40;99.90
37158;DHT22;23050;51.776;22.638;2022-08-21T03:05:56;16.40;99.90
37158;DHT22;23050;51.776;22.638;2022-08-21T03:08:23;16.40;99.90
37158;DHT22;23050;51.776;22.638;2022-08-21T03:10:51;16.40;99.90
37158;DHT22;23050;51.776;22.638;2022-08-21T03:13:17;16.40;99.90
37158;DHT22;23050;51.776;22.638;2022-08-21T03:15:43;16.40;99.90
37158;DHT22;23050;51.776;22.638;2022-08-21T03:18:10;16.30;99.90
37158;DHT22;23050;51.776;22.638;2022-08-21T03:20:37;16.30;99.90
37158;DHT22;23050;51.776;22.638;2022-08-21T03:23:04;16.40;99.90
37158;DHT22;23050;51.776;22.638;2022-08-21T03:25:31;16.40;99.90
37158;DHT22;23050;51.776;22.638;2022-08-21T03:27:58;16.30;99.90
37158;DHT22;23050;51.776;22.638;2022-08-21T03:30:24;16.30;99.90
37158;DHT22;23050;51.776;22.638;2022-08-21T03:32:50;16.30;99.90
37158;DHT22;23050;51.776;22.638;2022-08-21T03:35:17;16.30;99.90
37158;DHT22;23050;51.776;22.638;2022-08-21T03:37:44;16.30;99.90
37158;DHT22;23050;51.776;22.638;2022-08-21T03:40:11;16.40;99.90
37158;DHT22;23050;51.776;22.638;2022-08-21T03:42:37;16.40;99.90
37158;DHT22;23050;51.776;22.638;2022-08-21T03:45:03;16.40;99.90
37158;DHT22;23050;51.776;22.638;2022-08-21T03:47:29;16.30;99.90
37158;DHT22;23050;51.776;22.638;2022-08-21T03:49:55;16.40;99.90
37158;DHT22;23050;51.776;22.638;2022-08-21T03:52:21;16.30;99.90
37158;DHT22;23050;51.776;22.638;2022-08-21T03:54:46;16.40;99.90
37158;DHT22;23050;51.776;22.638;2022-08-21T03:57:12;16.50;99.90
37158;DHT22;23050;51.776;22.638;2022-08-21T03:59:38;16.50;99.90
37158;DHT22;23050;51.776;22.638;2022-08-21T04:02:05;16.50;99.90
37158;DHT22;23050;51.776;22.638;2022-08-21T04:04:31;16.50;99.90
37158;DHT22;23050;51.776;22.638;2022-08-21T04:06:57;16.60;99.90
37158;DHT22;23050;51.776;22.638;2022-08-21T04:09:24;16.60;99.90
37158;DHT22;23050;51.776;22.638;2022-08-21T04:11:50;16.70;99.90
37158;DHT22;23050;51.776;22.638;2022-08-21T04:14:16;16.70;99.90
37158;DHT22;23050;51.776;22.638;2022-08-21T04:16:42;16.80;99.90
37158;DHT22;23050;51.776;22.638;2022-08-21T04:19:09;16.90;99.90
37158;DHT22;23050;51.776;22.638;2022-08-21T04:21:36;16.90;99.90
37158;DHT22;23050;51.776;22.638;2022-08-21T04:24:03;17.00;99.90
37158;DHT22;23050;51.776;22.638;2022-08-21T04:26:28;17.10;99.90
37158;DHT22;23050;51.776;22.638;2022-08-21T04:28:56;17.10;99.90
37158;DHT22;23050;51.776;22.638;2022-08-21T04:31:23;17.10;99.90
37158;DHT22;23050;51.776;22.638;2022-08-21T04:33:49;17.20;99.90
37158;DHT22;23050;51.776;22.638;2022-08-21T04:36:16;17.20;99.90
37158;DHT22;23050;51.776;22.638;2022-08-21T04:38:42;17.30;99.90
37158;DHT22;23050;51.776;22.638;2022-08-21T04:41:08;17.30;99.90
37158;DHT22;23050;51.776;22.638;2022-08-21T04:43:34;17.30;99.90
37158;DHT22;23050;51.776;22.638;2022-08-21T04:46:00;17.40;99.90
37158;DHT22;23050;51.776;22.638;2022-08-21T04:48:26;17.40;99.90
37158;DHT22;23050;51.776;22.638;2022-08-21T04:53:51;17.50;99.90
37158;DHT22;23050;51.776;22.638;2022-08-21T04:56:23;17.60;99.90
37158;DHT22;23050;51.776;22.638;2022-08-21T04:58:54;17.60;99.90
37158;DHT22;23050;51.776;22.638;2022-08-21T05:01:23;17.60;99.90
37158;DHT22;23050;51.776;22.638;2022-08-21T05:03:53;17.60;99.90
37158;DHT22;23050;51.776;22.638;2022-08-21T05:06:21;17.70;99.90
37158;DHT22;23050;51.776;22.638;2022-08-21T05:08:48;17.70;99.90
37158;DHT22;23050;51.776;22.638;2022-08-21T05:11:15;17.80;99.90
37158;DHT22;23050;51.776;22.638;2022-08-21T05:13:41;17.90;99.90
37158;DHT22;23050;51.776;22.638;2022-08-21T05:16:07;17.90;99.90
37158;DHT22;23050;51.776;22.638;2022-08-21T05:18:33;17.90;99.90
37158;DHT22;23050;51.776;22.638;2022-08-21T05:20:59;18.00;99.90
37158;DHT22;23050;51.776;22.638;2022-08-21T05:23:25;18.00;99.90
37158;DHT22;23050;51.776;22.638;2022-08-21T05:25:52;18.00;99.90
37158;DHT22;23050;51.776;22.638;2022-08-21T05:28:18;18.10;99.90
37158;DHT22;23050;51.776;22.638;2022-08-21T05:30:44;18.20;99.90
37158;DHT22;23050;51.776;22.638;2022-08-21T05:33:10;18.30;99.90
37158;DHT22;23050;51.776;22.638;2022-08-21T05:35:37;18.30;99.90
37158;DHT22;23050;51.776;22.638;2022-08-21T05:38:04;18.30;99.90
37158;DHT22;23050;51.776;22.638;2022-08-21T05:40:30;18.40;99.90
37158;DHT22;23050;51.776;22.638;2022-08-21T05:42:56;18.40;99.90
37158;DHT22;23050;51.776;22.638;2022-08-21T05:45:27;18.40;99.90
37158;DHT22;23050;51.776;22.638;2022-08-21T05:47:53;18.60;99.90
37158;DHT22;23050;51.776;22.638;2022-08-21T05:50:19;18.70;99.90
37158;DHT22;23050;51.776;22.638;2022-08-21T05:52:45;18.80;99.90
37158;DHT22;23050;51.776;22.638;2022-08-21T05:55:11;18.80;99.90
37158;DHT22;23050;51.776;22.638;2022-08-21T05:57:36;18.90;99.90
37158;DHT22;23050;51.776;22.638;2022-08-21T06:00:04;18.90;99.90
37158;DHT22;23050;51.776;22.638;2022-08-21T06:02:30;19.00;99.90
37158;DHT22;23050;51.776;22.638;2022-08-21T06:04:56;18.90;99.90
37158;DHT22;23050;51.776;22.638;2022-08-21T06:07:22;18.90;99.90
37158;DHT22;23050;51.776;22.638;2022-08-21T06:09:48;18.90;99.90
37158;DHT22;23050;51.776;22.638;2022-08-21T06:12:14;19.00;99.90
37158;DHT22;23050;51.776;22.638;2022-08-21T06:14:40;19.10;99.90
37158;DHT22;23050;51.776;22.638;2022-08-21T06:17:08;19.10;99.90
37158;DHT22;23050;51.776;22.638;2022-08-21T06:19:34;19.00;99.90
37158;DHT22;23050;51.776;22.638;2022-08-21T06:22:00;19.10;99.90
37158;DHT22;23050;51.776;22.638;2022-08-21T06:24:26;19.20;99.90
37158;DHT22;23050;51.776;22.638;2022-08-21T06:26:53;19.20;99.90
37158;DHT22;23050;51.776;22.638;2022-08-21T06:29:19;19.20;99.90
37158;DHT22;23050;51.776;22.638;2022-08-21T06:31:46;19.20;99.90
37158;DHT22;23050;51.776;22.638;2022-08-21T06:34:12;19.30;99.90
37158;DHT22;23050;51.776;22.638;2022-08-21T06:36:38;19.30;99.90
37158;DHT22;23050;51.776;22.638;2022-08-21T06:39:03;19.40;99.90
37158;DHT22;23050;51.776;22.638;2022-08-21T06:41:30;19.40;99.90
37158;DHT22;23050;51.776;22.638;2022-08-21T06:43:56;19.50;99.90
37158;DHT22;23050;51.776;22.638;2022-08-21T06:46:24;19.50;99.90
37158;DHT22;23050;51.776;22.638;2022-08-21T06:48:50;19.60;99.90
37158;DHT22;23050;51.776;22.638;2022-08-21T06:51:16;19.60;99.90
37158;DHT22;23050;51.776;22.638;2022-08-21T06:53:42;19.60;99.90
37158;DHT22;23050;51.776;22.638;2022-08-21T06:56:07;19.70;99.90
37158;DHT22;23050;51.776;22.638;2022-08-21T06:58:33;19.90;99.90
37158;DHT22;23050;51.776;22.638;2022-08-21T07:00:59;20.00;99.90
37158;DHT22;23050;51.776;22.638;2022-08-21T07:03:34;20.00;99.90
37158;DHT22;23050;51.776;22.638;2022-08-21T07:06:01;20.00;99.90
37158;DHT22;23050;51.776;22.638;2022-08-21T07:08:27;20.10;99.90
37158;DHT22;23050;51.776;22.638;2022-08-21T07:10:56;20.10;99.90
37158;DHT22;23050;51.776;22.638;2022-08-21T07:13:22;20.20;99.90
37158;DHT22;23050;51.776;22.638;2022-08-21T07:15:48;20.30;99.90
37158;DHT22;23050;51.776;22.638;2022-08-21T07:18:13;20.40;99.90
37158;DHT22;23050;51.776;22.638;2022-08-21T07:20:40;20.50;99.90
37158;DHT22;23050;51.776;22.638;2022-08-21T07:23:31;20.50;99.90
37158;DHT22;23050;51.776;22.638;2022-08-21T07:25:57;20.60;99.90
37158;DHT22;23050;51.776;22.638;2022-08-21T07:28:25;20.70;99.90
37158;DHT22;23050;51.776;22.638;2022-08-21T07:30:52;20.70;99.90
37158;DHT22;23050;51.776;22.638;2022-08-21T07:33:18;20.70;99.90
37158;DHT22;23050;51.776;22.638;2022-08-21T07:35:44;20.80;99.90
37158;DHT22;23050;51.776;22.638;2022-08-21T07:38:09;20.80;99.90
37158;DHT22;23050;51.776;22.638;2022-08-21T07:40:35;20.70;99.90
37158;DHT22;23050;51.776;22.638;2022-08-21T07:43:01;20.70;99.90
37158;DHT22;23050;51.776;22.638;2022-08-21T07:45:27;20.80;99.90
37158;DHT22;23050;51.776;22.638;2022-08-21T07:47:53;20.80;99.90
37158;DHT22;23050;51.776;22.638;2022-08-21T07:50:19;20.80;99.90
37158;DHT22;23050;51.776;22.638;2022-08-21T07:52:45;20.80;99.90
37158;DHT22;23050;51.776;22.638;2022-08-21T07:55:13;20.90;99.90
37158;DHT22;23050;51.776;22.638;2022-08-21T07:57:38;21.00;99.90
37158;DHT22;23050;51.776;22.638;2022-08-21T08:00:06;21.20;99.90
37158;DHT22;23050;51.776;22.638;2022-08-21T08:02:32;21.30;99.90
37158;DHT22;23050;51.776;22.638;2022-08-21T08:04:59;21.50;99.90
37158;DHT22;23050;51.776;22.638;2022-08-21T08:07:26;21.50;99.90
37158;DHT22;23050;51.776;22.638;2022-08-21T08:09:51;21.60;99.90
37158;DHT22;23050;51.776;22.638;2022-08-21T08:12:17;21.70;99.90
37158;DHT22;23050;51.776;22.638;2022-08-21T08:14:44;21.80;99.90
37158;DHT22;23050;51.776;22.638;2022-08-21T08:17:09;21.90;99.90
37158;DHT22;23050;51.776;22.638;2022-08-21T08:19:35;21.80;99.90
37158;DHT22;23050;51.776;22.638;2022-08-21T08:22:01;21.80;99.90
37158;DHT22;23050;51.776;22.638;2022-08-21T08:24:29;21.70;99.90
37158;DHT22;23050;51.776;22.638;2022-08-21T08:26:55;21.70;99.90
37158;DHT22;23050;51.776;22.638;2022-08-21T08:29:22;21.70;99.90
37158;DHT22;23050;51.776;22.638;2022-08-21T08:31:48;21.60;99.90
37158;DHT22;23050;51.776;22.638;2022-08-21T08:34:13;21.70;99.90
37158;DHT22;23050;51.776;22.638;2022-08-21T08:36:39;21.70;99.90
37158;DHT22;23050;51.776;22.638;2022-08-21T08:39:05;22.00;99.90
37158;DHT22;23050;51.776;22.638;2022-08-21T08:41:32;22.10;99.90
37158;DHT22;23050;51.776;22.638;2022-08-21T08:44:04;22.20;99.90
37158;DHT22;23050;51.776;22.638;2022-08-21T08:46:46;22.40;99.90
37158;DHT22;23050;51.776;22.638;2022-08-21T08:51:52;22.40;99.90
37158;DHT22;23050;51.776;22.638;2022-08-21T08:55:25;22.40;99.90
37158;DHT22;23050;51.776;22.638;2022-08-21T08:57:20;22.40;99.90
37158;DHT22;23050;51.776;22.638;2022-08-21T08:59:52;22.40;99.90
37158;DHT22;23050;51.776;22.638;2022-08-21T09:02:18;22.50;99.90
37158;DHT22;23050;51.776;22.638;2022-08-21T09:04:46;22.30;99.90
37158;DHT22;23050;51.776;22.638;2022-08-21T09:15:27;22.20;99.90
37158;DHT22;23050;51.776;22.638;2022-08-21T09:24:06;22.50;99.90
37158;DHT22;23050;51.776;22.638;2022-08-21T09:27:02;22.50;99.90
37158;DHT22;23050;51.776;22.638;2022-08-21T09:29:31;22.50;99.90
37158;DHT22;23050;51.776;22.638;2022-08-21T09:31:58;22.50;99.90
37158;DHT22;23050;51.776;22.638;2022-08-21T09:34:27;22.50;99.90
37158;DHT22;23050;51.776;22.638;2022-08-21T09:36:54;22.40;99.90
37158;DHT22;23050;51.776;22.638;2022-08-21T09:39:32;22.40;99.90
37158;DHT22;23050;51.776;22.638;2022-08-21T09:42:08;22.40;99.90
37158;DHT22;23050;51.776;22.638;2022-08-21T09:44:37;22.40;99.90
37158;DHT22;23050;51.776;22.638;2022-08-21T09:47:10;22.40;99.90
37158;DHT22;23050;51.776;22.638;2022-08-21T09:49:40;22.20;99.90
37158;DHT22;23050;51.776;22.638;2022-08-21T09:54:44;22.20;99.90
37158;DHT22;23050;51.776;22.638;2022-08-21T09:59:55;22.40;99.90
37158;DHT22;23050;51.776;22.638;2022-08-21T10:02:33;22.50;99.90
37158;DHT22;23050;51.776;22.638;2022-08-21T10:05:01;22.70;99.90
37158;DHT22;23050;51.776;22.638;2022-08-21T10:07:29;22.90;99.90
37158;DHT22;23050;51.776;22.638;2022-08-21T10:12:51;23.00;99.90
37158;DHT22;23050;51.776;22.638;2022-08-21T10:18:41;23.10;99.90
37158;DHT22;23050;51.776;22.638;2022-08-21T10:21:01;23.00;99.90
37158;DHT22;23050;51.776;22.638;2022-08-21T10:40:20;23.70;99.90
37158;DHT22;23050;51.776;22.638;2022-08-21T10:48:35;24.20;99.90
37158;DHT22;23050;51.776;22.638;2022-08-21T10:54:35;24.80;99.90
37158;DHT22;23050;51.776;22.638;2022-08-21T10:57:11;25.00;99.90
37158;DHT22;23050;51.776;22.638;2022-08-21T10:59:47;25.40;99.90
37158;DHT22;23050;51.776;22.638;2022-08-21T11:07:38;26.80;99.90
37158;DHT22;23050;51.776;22.638;2022-08-21T11:13:03;28.40;97.40
37158;DHT22;23050;51.776;22.638;2022-08-21T11:15:43;28.80;88.30
37158;DHT22;23050;51.776;22.638;2022-08-21T11:18:47;28.90;76.70
37158;DHT22;23050;51.776;22.638;2022-08-21T11:27:09;28.10;79.00
37158;DHT22;23050;51.776;22.638;2022-08-21T11:29:38;28.40;72.40
37158;DHT22;23050;51.776;22.638;2022-08-21T11:40:54;28.50;77.70
37158;DHT22;23050;51.776;22.638;2022-08-21T11:43:43;29.00;77.20
37158;DHT22;23050;51.776;22.638;2022-08-21T11:46:20;29.80;59.70
37158;DHT22;23050;51.776;22.638;2022-08-21T11:51:36;29.10;56.90
37158;DHT22;23050;51.776;22.638;2022-08-21T11:56:37;28.70;60.20
37158;DHT22;23050;51.776;22.638;2022-08-21T11:59:13;29.20;65.80
37158;DHT22;23050;51.776;22.638;2022-08-21T12:01:44;29.60;49.10
37158;DHT22;23050;51.776;22.638;2022-08-21T12:06:49;29.90;61.60
37158;DHT22;23050;51.776;22.638;2022-08-21T12:09:28;29.70;41.60
37158;DHT22;23050;51.776;22.638;2022-08-21T12:12:11;29.40;45.60
37158;DHT22;23050;51.776;22.638;2022-08-21T12:14:43;29.40;39.30
37158;DHT22;23050;51.776;22.638;2022-08-21T12:17:22;29.20;44.30
37158;DHT22;23050;51.776;22.638;2022-08-21T12:19:59;29.90;46.80
37158;DHT22;23050;51.776;22.638;2022-08-21T12:22:37;29.90;40.20
37158;DHT22;23050;51.776;22.638;2022-08-21T12:25:07;29.80;42.60
37158;DHT22;23050;51.776;22.638;2022-08-21T12:27:53;29.50;41.80
37158;DHT22;23050;51.776;22.638;2022-08-21T12:33:02;30.10;40.60
37158;DHT22;23050;51.776;22.638;2022-08-21T12:35:37;30.50;38.50
37158;DHT22;23050;51.776;22.638;2022-08-21T12:38:13;30.20;32.90
37158;DHT22;23050;51.776;22.638;2022-08-21T12:40:54;30.20;33.00
37158;DHT22;23050;51.776;22.638;2022-08-21T12:43:53;30.00;36.10
37158;DHT22;23050;51.776;22.638;2022-08-21T12:46:31;30.50;35.10
37158;DHT22;23050;51.776;22.638;2022-08-21T12:49:02;31.00;30.20
37158;DHT22;23050;51.776;22.638;2022-08-21T12:51:34;31.30;32.00
37158;DHT22;23050;51.776;22.638;2022-08-21T12:54:02;31.70;27.00
37158;DHT22;23050;51.776;22.638;2022-08-21T12:56:33;31.90;23.40
37158;DHT22;23050;51.776;22.638;2022-08-21T12:59:05;32.00;23.50
37158;DHT22;23050;51.776;22.638;2022-08-21T13:01:34;31.60;24.00
37158;DHT22;23050;51.776;22.638;2022-08-21T13:04:07;31.00;23.10
37158;DHT22;23050;51.776;22.638;2022-08-21T13:06:40;30.60;24.80
37158;DHT22;23050;51.776;22.638;2022-08-21T13:09:11;30.00;26.30
37158;DHT22;23050;51.776;22.638;2022-08-21T13:11:39;29.70;27.40
37158;DHT22;23050;51.776;22.638;2022-08-21T13:14:06;29.90;30.00
37158;DHT22;23050;51.776;22.638;2022-08-21T13:16:39;30.50;28.20
37158;DHT22;23050;51.776;22.638;2022-08-21T13:19:07;31.00;28.40
37158;DHT22;23050;51.776;22.638;2022-08-21T13:21:43;31.30;28.40
37158;DHT22;23050;51.776;22.638;2022-08-21T13:24:31;31.50;26.50
37158;DHT22;23050;51.776;22.638;2022-08-21T13:26:57;31.60;23.40
37158;DHT22;23050;51.776;22.638;2022-08-21T13:29:30;31.00;21.60
37158;DHT22;23050;51.776;22.638;2022-08-21T13:32:00;30.20;24.10
37158;DHT22;23050;51.776;22.638;2022-08-21T13:34:31;29.80;26.90
37158;DHT22;23050;51.776;22.638;2022-08-21T13:37:02;29.60;32.20
37158;DHT22;23050;51.776;22.638;2022-08-21T13:39:28;29.70;29.00
37158;DHT22;23050;51.776;22.638;2022-08-21T13:41:56;30.10;29.20
37158;DHT22;23050;51.776;22.638;2022-08-21T13:44:40;30.70;28.30
37158;DHT22;23050;51.776;22.638;2022-08-21T13:47:06;31.30;24.10
37158;DHT22;23050;51.776;22.638;2022-08-21T13:49:40;31.50;21.90
37158;DHT22;23050;51.776;22.638;2022-08-21T13:52:22;31.10;19.90
37158;DHT22;23050;51.776;22.638;2022-08-21T13:55:00;31.00;20.10
37158;DHT22;23050;51.776;22.638;2022-08-21T13:57:27;30.40;21.60
37158;DHT22;23050;51.776;22.638;2022-08-21T14:00:10;29.50;20.80
37158;DHT22;23050;51.776;22.638;2022-08-21T14:02:39;29.60;24.40
37158;DHT22;23050;51.776;22.638;2022-08-21T14:05:06;29.60;25.80
37158;DHT22;23050;51.776;22.638;2022-08-21T14:07:36;30.10;25.60
37158;DHT22;23050;51.776;22.638;2022-08-21T14:10:05;30.40;25.20
37158;DHT22;23050;51.776;22.638;2022-08-21T14:15:26;31.10;21.10
37158;DHT22;23050;51.776;22.638;2022-08-21T14:17:54;31.10;23.40
37158;DHT22;23050;51.776;22.638;2022-08-21T14:20:31;30.80;22.30
37158;DHT22;23050;51.776;22.638;2022-08-21T14:22:58;30.00;24.90
37158;DHT22;23050;51.776;22.638;2022-08-21T14:28:18;29.00;32.20
37158;DHT22;23050;51.776;22.638;2022-08-21T14:30:42;28.80;36.80
37158;DHT22;23050;51.776;22.638;2022-08-21T14:33:11;28.50;41.70
37158;DHT22;23050;51.776;22.638;2022-08-21T14:35:36;28.30;48.00
37158;DHT22;23050;51.776;22.638;2022-08-21T14:38:14;28.30;45.60
37158;DHT22;23050;51.776;22.638;2022-08-21T14:40:40;28.40;48.70
37158;DHT22;23050;51.776;22.638;2022-08-21T14:43:07;28.60;44.20
37158;DHT22;23050;51.776;22.638;2022-08-21T14:45:34;28.90;42.10
37158;DHT22;23050;51.776;22.638;2022-08-21T14:48:02;29.10;38.20
37158;DHT22;23050;51.776;22.638;2022-08-21T14:50:28;29.40;37.90
37158;DHT22;23050;51.776;22.638;2022-08-21T14:52:54;29.60;36.80
37158;DHT22;23050;51.776;22.638;2022-08-21T14:55:20;29.70;35.40
37158;DHT22;23050;51.776;22.638;2022-08-21T14:57:47;29.80;33.20
37158;DHT22;23050;51.776;22.638;2022-08-21T15:00:17;29.90;31.10
37158;DHT22;23050;51.776;22.638;2022-08-21T15:02:43;29.80;32.80
37158;DHT22;23050;51.776;22.638;2022-08-21T15:05:09;29.80;32.60
37158;DHT22;23050;51.776;22.638;2022-08-21T15:07:35;29.60;33.00
37158;DHT22;23050;51.776;22.638;2022-08-21T15:10:01;29.40;37.90
37158;DHT22;23050;51.776;22.638;2022-08-21T15:12:27;29.20;37.80
37158;DHT22;23050;51.776;22.638;2022-08-21T15:14:53;29.20;39.50
37158;DHT22;23050;51.776;22.638;2022-08-21T15:17:19;28.90;40.80
37158;DHT22;23050;51.776;22.638;2022-08-21T15:19:45;28.80;40.50
37158;DHT22;23050;51.776;22.638;2022-08-21T15:22:10;28.60;44.90
37158;DHT22;23050;51.776;22.638;2022-08-21T15:24:45;28.70;46.70
37158;DHT22;23050;51.776;22.638;2022-08-21T15:27:14;28.70;46.00
37158;DHT22;23050;51.776;22.638;2022-08-21T15:29:41;28.60;44.60
37158;DHT22;23050;51.776;22.638;2022-08-21T15:32:22;28.40;45.50
37158;DHT22;23050;51.776;22.638;2022-08-21T15:34:49;28.40;51.20
37158;DHT22;23050;51.776;22.638;2022-08-21T15:37:15;28.50;48.10
37158;DHT22;23050;51.776;22.638;2022-08-21T15:39:41;28.50;50.00
37158;DHT22;23050;51.776;22.638;2022-08-21T15:42:07;28.50;46.60
37158;DHT22;23050;51.776;22.638;2022-08-21T15:44:33;28.40;46.60
37158;DHT22;23050;51.776;22.638;2022-08-21T15:46:59;28.20;50.10
37158;DHT22;23050;51.776;22.638;2022-08-21T15:49:25;28.10;54.60
37158;DHT22;23050;51.776;22.638;2022-08-21T15:51:51;28.30;56.70
37158;DHT22;23050;51.776;22.638;2022-08-21T15:54:17;28.20;54.60
37158;DHT22;23050;51.776;22.638;2022-08-21T15:56:44;28.30;52.00
37158;DHT22;23050;51.776;22.638;2022-08-21T15:59:17;28.20;55.60
37158;DHT22;23050;51.776;22.638;2022-08-21T16:01:44;28.10;55.70
37158;DHT22;23050;51.776;22.638;2022-08-21T16:04:11;28.00;55.60
37158;DHT22;23050;51.776;22.638;2022-08-21T16:06:39;27.80;59.30
37158;DHT22;23050;51.776;22.638;2022-08-21T16:09:05;27.70;63.00
37158;DHT22;23050;51.776;22.638;2022-08-21T16:11:30;27.60;64.70
37158;DHT22;23050;51.776;22.638;2022-08-21T16:13:56;27.40;69.10
37158;DHT22;23050;51.776;22.638;2022-08-21T16:16:23;27.30;73.90
37158;DHT22;23050;51.776;22.638;2022-08-21T16:18:50;27.10;79.60
37158;DHT22;23050;51.776;22.638;2022-08-21T16:21:17;26.80;81.30
37158;DHT22;23050;51.776;22.638;2022-08-21T16:23:43;26.70;86.00
37158;DHT22;23050;51.776;22.638;2022-08-21T16:26:11;26.60;90.20
37158;DHT22;23050;51.776;22.638;2022-08-21T16:28:38;26.50;90.10
37158;DHT22;23050;51.776;22.638;2022-08-21T16:31:05;26.30;90.80
37158;DHT22;23050;51.776;22.638;2022-08-21T16:33:36;26.10;92.00
37158;DHT22;23050;51.776;22.638;2022-08-21T16:36:04;25.90;94.30
37158;DHT22;23050;51.776;22.638;2022-08-21T16:38:30;25.70;94.90
37158;DHT22;23050;51.776;22.638;2022-08-21T16:40:58;25.60;97.00
37158;DHT22;23050;51.776;22.638;2022-08-21T16:43:25;25.50;98.00
37158;DHT22;23050;51.776;22.638;2022-08-21T16:45:53;25.30;99.20
37158;DHT22;23050;51.776;22.638;2022-08-21T16:48:21;25.10;99.80
37158;DHT22;23050;51.776;22.638;2022-08-21T16:50:47;25.00;99.90
37158;DHT22;23050;51.776;22.638;2022-08-21T16:53:13;24.80;99.90
37158;DHT22;23050;51.776;22.638;2022-08-21T16:55:39;24.60;99.90
37158;DHT22;23050;51.776;22.638;2022-08-21T16:58:30;24.50;99.90
37158;DHT22;23050;51.776;22.638;2022-08-21T17:00:54;24.40;99.90